Time;durP1;ratioP1;P1;durP2;ratioP2;P2;SDS_P1;SDS_P2;PMS_P1;PMS_P2;Temp;Humidity;BMP_temperature;BMP_pressure;BME280_temperature;BME280_humidity;BME280_pressure;Samples;Min_cycle;Max_cycle;Signal;HPM_P1;HPM_P2
2022/11/01 00:01:50;;;;;;;256.30;52.70;;;11.00;99.90;;;;;;5071919;28;20480;-58
2022/11/01 00:04:16;;;;;;;314.13;65.38;;;;;;;;;;5069677;28;20033;-54
2022/11/01 00:06:42;;;;;;;252.15;60.95;;;;;;;;;;5071232;28;20035;-53
2022/11/01 00:09:08;;;;;;;317.63;60.17;;;;;;;;;;5072675;28;20075;-52
2022/11/01 00:11:34;;;;;;;282.42;63.25;;;;;;;;;;5086840;28;20373;-53
2022/11/01 00:14:00;;;;;;;265.95;53.55;;;;;;;;;;5072600;28;20032;-52
2022/11/01 00:16:26;;;;;;;259.45;59.50;;;;;;;;;;5070978;28;20028;-54
2022/11/01 00:18:52;;;;;;;313.85;62.03;;;;;;;;;;5069402;28;20041;-54
2022/11/01 00:21:18;;;;;;;261.65;58.28;;;;;;;;;;5075466;28;20029;-54
2022/11/01 00:23:45;;;;;;;258.67;57.38;;;;;;;;;;5073745;28;20123;-54
2022/11/01 00:26:19;;;;;;;215.82;55.75;;;;;;;;;;5084698;28;20036;-54
2022/11/01 00:28:45;;;;;;;265.58;56.63;;;;;;;;;;5069189;28;20037;-56
2022/11/01 00:31:11;;;;;;;232.57;62.85;;;;;;;;;;5075791;28;20043;-54
2022/11/01 00:33:40;;;;;;;309.25;61.75;;;;;;;;;;5072660;28;20040;-53
2022/11/01 00:36:07;;;;;;;306.83;62.53;;;;;;;;;;5084757;28;20052;-55
2022/11/01 00:38:33;;;;;;;168.85;57.63;;;11.70;99.90;;;;;;5071785;28;20043;-54
2022/11/01 00:41:01;;;;;;;255.02;61.92;;;11.70;99.90;;;;;;5075323;28;20028;-53
2022/11/01 00:43:27;;;;;;;300.23;63.03;;;11.50;99.90;;;;;;5071859;28;20435;-54
2022/11/01 00:45:52;;;;;;;281.15;60.78;;;11.50;99.90;;;;;;5069360;28;20195;-54
2022/11/01 00:48:18;;;;;;;252.77;61.05;;;11.40;99.90;;;;;;5069715;28;20531;-54
2022/11/01 00:50:44;;;;;;;174.55;58.00;;;11.60;99.90;;;;;;5072428;28;20047;-55
2022/11/01 00:53:11;;;;;;;255.20;59.55;;;;;;;;;;5070483;28;20119;-55
2022/11/01 00:55:37;;;;;;;313.90;57.85;;;;;;;;;;5073116;28;20115;-53
2022/11/01 00:58:03;;;;;;;350.30;64.80;;;11.40;99.90;;;;;;5074671;28;20049;-55
2022/11/01 01:00:30;;;;;;;255.85;57.63;;;;;;;;;;5070638;28;20075;-57
2022/11/01 01:02:56;;;;;;;219.60;56.47;;;;;;;;;;5073398;28;20029;-55
2022/11/01 01:05:22;;;;;;;336.35;60.22;;;;;;;;;;5085056;28;20060;-52
2022/11/01 03:42:40;;;;;;;179.70;47.90;;;11.20;99.90;;;;;;5065581;28;20052;-53
2022/11/01 03:45:11;;;;;;;269.70;49.22;;;11.20;99.90;;;;;;5066111;28;20072;-55
2022/11/01 03:47:36;;;;;;;170.98;47.13;;;11.00;99.90;;;;;;5078340;28;20031;-54
2022/11/01 03:50:18;;;;;;;232.95;52.30;;;11.10;99.90;;;;;;5050014;28;20037;-57
2022/11/01 03:52:44;;;;;;;181.63;48.95;;;11.20;99.90;;;;;;5067160;28;20036;-56
2022/11/01 03:55:19;;;;;;;231.95;53.05;;;11.10;99.90;;;;;;5070760;28;20029;-53
2022/11/01 03:57:56;;;;;;;258.25;51.13;;;11.20;99.90;;;;;;5068670;28;20123;-57
2022/11/01 04:00:25;;;;;;;239.57;51.28;;;11.50;99.90;;;;;;5064339;28;20376;-55
2022/11/01 04:02:53;;;;;;;165.75;49.55;;;11.40;99.90;;;;;;5069144;28;20071;-55
2022/11/01 04:05:20;;;;;;;434.58;79.57;;;11.40;99.90;;;;;;5072392;28;20029;-55
2022/11/01 04:07:47;;;;;;;156.40;57.90;;;;;;;;;;5070541;28;20411;-56
2022/11/01 04:10:13;;;;;;;173.82;49.90;;;11.70;99.90;;;;;;5073881;28;20384;-57
2022/11/01 04:12:39;;;;;;;171.73;47.65;;;11.80;99.90;;;;;;5074859;28;20032;-55
2022/11/01 04:21:03;;;;;;;151.43;42.25;;;11.80;99.90;;;;;;5072305;28;20034;-52
2022/11/01 04:23:29;;;;;;;163.50;42.63;;;11.50;99.90;;;;;;5073208;28;20078;-52
2022/11/01 04:25:55;;;;;;;170.43;44.28;;;;;;;;;;5075335;28;20032;-55
2022/11/01 04:28:22;;;;;;;117.20;46.05;;;;;;;;;;5073289;28;20032;-56
2022/11/01 04:30:48;;;;;;;159.20;42.17;;;;;;;;;;5071818;28;20041;-55
2022/11/01 04:33:15;;;;;;;130.45;41.60;;;;;;;;;;5079871;28;20078;-54
2022/11/01 04:35:41;;;;;;;170.35;38.67;;;;;;;;;;5076158;28;20081;-53
2022/11/01 04:38:08;;;;;;;185.90;44.47;;;;;;;;;;5070738;28;20440;-55
2022/11/01 04:40:34;;;;;;;141.20;41.47;;;;;;;;;;5073209;28;20029;-55
2022/11/01 04:43:01;;;;;;;106.00;48.13;;;;;;;;;;5075101;28;20052;-54
2022/11/01 04:45:27;;;;;;;132.73;39.25;;;;;;;;;;5072016;28;20029;-53
2022/11/01 04:48:06;;;;;;;103.40;39.42;;;;;;;;;;5088134;28;20170;-52
2022/11/01 04:50:33;;;;;;;113.82;37.90;;;;;;;;;;5069729;28;20433;-51
2022/11/01 04:53:00;;;;;;;131.20;37.58;;;12.50;99.90;;;;;;5075127;28;20036;-53
2022/11/01 04:55:27;;;;;;;180.35;36.70;;;12.10;99.90;;;;;;5072137;28;20032;-53
2022/11/01 04:57:53;;;;;;;188.65;38.08;;;12.00;99.90;;;;;;5078401;28;20032;-57
2022/11/01 05:00:19;;;;;;;107.20;37.13;;;11.90;99.90;;;;;;5071440;28;20032;-55
2022/11/01 05:02:44;;;;;;;160.27;40.13;;;11.90;99.90;;;;;;5071074;28;20476;-57
2022/11/01 05:05:11;;;;;;;133.52;38.28;;;11.80;99.90;;;;;;5074474;28;20020;-55
2022/11/01 05:07:37;;;;;;;183.73;38.78;;;11.40;99.90;;;;;;5072319;28;20047;-54
2022/11/01 05:10:04;;;;;;;178.35;38.67;;;;;;;;;;5073371;28;20200;-52
2022/11/01 05:12:30;;;;;;;132.77;34.50;;;10.70;99.90;;;;;;5071769;28;20071;-53
2022/11/01 05:14:56;;;;;;;181.65;37.63;;;10.30;99.90;;;;;;5072313;28;20028;-50
2022/11/01 05:17:21;;;;;;;186.32;40.63;;;10.10;99.90;;;;;;5023942;28;20059;-54
2022/11/01 05:19:47;;;;;;;108.22;38.92;;;10.30;99.90;;;;;;5088048;28;20037;-55
2022/11/01 05:22:13;;;;;;;179.13;40.58;;;10.60;99.90;;;;;;5033045;28;20115;-54
2022/11/01 05:24:39;;;;;;;123.60;38.88;;;10.90;99.90;;;;;;5087722;28;20059;-54
2022/11/01 05:27:04;;;;;;;127.60;38.17;;;11.00;99.90;;;;;;5071289;28;20476;-55
2022/11/01 05:29:30;;;;;;;126.32;38.60;;;11.10;99.90;;;;;;5069911;28;20047;-55
2022/11/01 05:31:56;;;;;;;178.23;36.92;;;11.40;99.90;;;;;;5074182;28;20031;-58
2022/11/01 05:34:21;;;;;;;116.55;35.13;;;11.40;99.90;;;;;;5086362;28;20033;-53
2022/11/01 05:36:47;;;;;;;118.80;34.42;;;11.60;99.90;;;;;;5069082;28;20111;-55
2022/11/01 05:39:13;;;;;;;109.65;35.92;;;11.50;99.90;;;;;;5069208;28;20037;-53
2022/11/01 05:41:41;;;;;;;163.77;36.35;;;11.60;99.90;;;;;;5063692;28;20049;-55
2022/11/01 05:44:07;;;;;;;74.30;31.45;;;11.60;99.90;;;;;;5068236;28;20375;-54
2022/11/01 05:46:33;;;;;;;174.38;50.63;;;11.70;99.90;;;;;;5068692;28;20021;-53
2022/11/01 05:48:59;;;;;;;96.45;35.25;;;11.50;99.90;;;;;;5071948;28;20024;-54
2022/11/01 05:51:24;;;;;;;125.30;32.65;;;11.30;99.90;;;;;;5075967;28;20032;-55
2022/11/01 05:53:50;;;;;;;113.97;32.40;;;11.30;99.90;;;;;;5046135;28;20036;-55
2022/11/01 05:56:16;;;;;;;146.85;33.40;;;10.90;99.90;;;;;;5071453;28;20052;-53
2022/11/01 05:58:42;;;;;;;136.15;31.52;;;11.00;99.90;;;;;;5071949;28;20102;-58
2022/11/01 06:01:09;;;;;;;115.38;34.83;;;;;;;;;;5073850;28;20036;-53
2022/11/01 06:03:35;;;;;;;133.32;35.63;;;;;;;;;;5071886;28;20051;-53
2022/11/01 06:06:01;;;;;;;102.25;33.35;;;;;;;;;;5070419;28;20118;-52
2022/11/01 06:08:28;;;;;;;134.77;32.35;;;;;;;;;;5071283;28;20047;-52
2022/11/01 06:11:01;;;;;;;133.27;35.58;;;;;;;;;;5084344;28;20046;-55
2022/11/01 06:13:27;;;;;;;70.30;32.90;;;11.00;99.90;;;;;;5071484;28;20025;-55
2022/11/01 06:16:04;;;;;;;62.65;31.65;;;11.10;99.90;;;;;;5068856;28;20372;-55
2022/11/01 06:18:30;;;;;;;185.50;34.28;;;11.30;99.90;;;;;;5031703;28;20029;-52
2022/11/01 06:20:56;;;;;;;68.65;33.00;;;11.30;99.90;;;;;;5073381;28;20055;-55
2022/11/01 06:23:22;;;;;;;104.75;33.53;;;11.50;99.90;;;;;;5070922;28;20082;-54
2022/11/01 06:25:48;;;;;;;141.30;34.40;;;11.20;99.90;;;;;;5069222;28;20032;-53
2022/11/01 06:28:14;;;;;;;123.72;34.63;;;11.10;99.90;;;;;;5066716;28;20036;-55
2022/11/01 06:30:40;;;;;;;83.13;33.72;;;11.30;99.90;;;;;;5071960;28;20357;-54
2022/11/01 06:33:08;;;;;;;57.55;32.50;;;11.60;99.90;;;;;;5070653;28;20020;-54
2022/11/01 06:35:34;;;;;;;79.30;32.63;;;11.70;99.90;;;;;;5082051;28;20119;-55
2022/11/01 06:38:07;;;;;;;69.85;32.40;;;11.70;99.90;;;;;;5072090;28;20024;-52
2022/11/01 06:40:34;;;;;;;69.38;32.97;;;11.60;99.90;;;;;;5070744;28;20055;-55
2022/11/01 06:43:01;;;;;;;69.10;32.63;;;11.60;99.90;;;;;;5068726;28;20046;-52
2022/11/01 06:45:31;;;;;;;72.55;34.42;;;11.70;99.90;;;;;;5067998;28;20365;-54
2022/11/01 06:47:57;;;;;;;58.93;32.10;;;11.90;99.90;;;;;;5071162;28;20525;-52
2022/11/01 06:50:23;;;;;;;57.83;33.75;;;11.80;99.90;;;;;;5069792;28;20044;-54
2022/11/01 06:52:49;;;;;;;79.72;32.38;;;12.00;99.90;;;;;;5070731;28;20385;-54
2022/11/01 06:55:15;;;;;;;97.35;36.58;;;12.20;99.90;;;;;;5068287;28;20021;-54
2022/11/01 06:57:41;;;;;;;93.85;32.38;;;12.30;99.90;;;;;;5068925;28;20053;-54
2022/11/01 07:00:08;;;;;;;85.53;32.38;;;12.40;99.90;;;;;;5067854;28;20037;-52
2022/11/01 07:02:35;;;;;;;103.35;31.98;;;12.00;99.90;;;;;;5072030;28;20060;-53
2022/11/01 07:05:00;;;;;;;85.03;31.23;;;12.10;99.90;;;;;;5071859;28;20409;-54
2022/11/01 07:07:26;;;;;;;68.78;29.58;;;12.20;99.90;;;;;;5071271;28;20074;-54
2022/11/01 07:09:52;;;;;;;66.03;30.92;;;12.00;99.90;;;;;;5070948;28;20047;-52
2022/11/01 07:12:18;;;;;;;57.72;30.55;;;11.90;99.90;;;;;;5084637;28;20039;-53
2022/11/01 07:14:43;;;;;;;147.25;31.63;;;12.00;99.90;;;;;;5071288;28;20037;-52
2022/11/01 07:17:09;;;;;;;81.75;31.48;;;12.50;99.90;;;;;;5070345;28;20056;-54
2022/11/01 07:19:35;;;;;;;79.78;32.05;;;12.30;99.90;;;;;;5071593;28;20028;-53
2022/11/01 07:22:00;;;;;;;116.00;31.98;;;12.50;99.90;;;;;;5049175;28;20029;-54
2022/11/01 07:24:26;;;;;;;83.53;32.40;;;12.70;99.90;;;;;;5071725;28;20028;-51
2022/11/01 07:26:52;;;;;;;57.28;31.23;;;12.90;99.90;;;;;;5070593;28;20461;-52
2022/11/01 07:29:19;;;;;;;46.15;30.58;;;12.90;99.90;;;;;;5070534;28;20036;-52
2022/11/01 07:31:46;;;;;;;58.35;32.15;;;13.20;99.90;;;;;;5069610;28;20451;-53
2022/11/01 07:34:12;;;;;;;44.92;31.25;;;13.00;99.90;;;;;;5069954;28;20127;-52
2022/11/01 07:36:37;;;;;;;59.10;31.75;;;13.10;99.90;;;;;;5069886;28;20111;-53
2022/11/01 07:39:03;;;;;;;67.88;32.15;;;13.20;99.90;;;;;;5072753;28;20420;-52
2022/11/01 07:41:29;;;;;;;42.45;31.98;;;13.10;99.90;;;;;;5068736;28;20124;-52
2022/11/01 07:43:54;;;;;;;50.47;33.17;;;13.00;99.90;;;;;;5057607;28;20039;-54
2022/11/01 07:46:20;;;;;;;52.10;31.85;;;12.90;99.90;;;;;;5071777;28;20055;-53
2022/11/01 07:48:46;;;;;;;69.07;32.47;;;13.00;99.90;;;;;;5071975;28;20075;-53
2022/11/01 07:51:11;;;;;;;58.00;31.63;;;13.10;99.90;;;;;;5040737;28;20118;-52
2022/11/01 07:53:37;;;;;;;56.00;33.67;;;13.10;99.90;;;;;;5072276;28;20032;-54
2022/11/01 07:56:03;;;;;;;57.25;35.97;;;13.00;99.90;;;;;;5037786;28;20173;-52
2022/11/01 07:58:29;;;;;;;62.80;35.25;;;13.00;99.90;;;;;;5027954;28;20053;-54
2022/11/01 08:00:55;;;;;;;53.05;36.85;;;13.00;99.90;;;;;;5073337;28;20380;-53
2022/11/01 08:03:22;;;;;;;64.40;36.65;;;13.10;99.90;;;;;;5071676;28;20028;-54
2022/11/01 08:05:48;;;;;;;95.78;39.03;;;13.30;99.90;;;;;;5073655;28;20025;-54
2022/11/01 08:08:14;;;;;;;64.05;37.65;;;13.20;99.90;;;;;;5070793;28;20037;-52
2022/11/01 08:10:41;;;;;;;62.67;38.38;;;13.40;99.90;;;;;;5068441;28;20045;-53
2022/11/01 08:13:16;;;;;;;67.13;39.47;;;;;;;;;;5075420;28;20055;-55
2022/11/01 08:15:43;;;;;;;96.35;39.90;;;13.80;99.90;;;;;;5074640;28;20029;-54
2022/11/01 08:18:08;;;;;;;53.58;37.45;;;14.00;99.90;;;;;;5072165;28;20063;-53
2022/11/01 08:20:35;;;;;;;54.90;37.35;;;;;;;;;;5072442;28;20072;-55
2022/11/01 08:23:01;;;;;;;58.97;37.15;;;14.50;99.90;;;;;;5074556;28;20022;-54
2022/11/01 08:25:27;;;;;;;59.80;36.67;;;14.50;99.90;;;;;;5072975;28;20036;-53
2022/11/01 08:27:52;;;;;;;62.83;37.95;;;14.50;99.90;;;;;;5073689;28;20063;-52
2022/11/01 08:30:19;;;;;;;62.00;39.75;;;14.30;99.90;;;;;;5072626;28;20147;-54
2022/11/01 08:32:45;;;;;;;58.28;38.97;;;14.30;99.90;;;;;;5071363;28;20044;-52
2022/11/01 08:35:11;;;;;;;57.17;38.33;;;14.30;99.90;;;;;;5070833;28;20116;-54
2022/11/01 08:37:48;;;;;;;58.70;38.22;;;14.50;99.90;;;;;;5050298;28;20495;-54
2022/11/01 08:40:14;;;;;;;64.47;37.88;;;14.60;99.90;;;;;;5070528;28;20025;-55
2022/11/01 08:42:39;;;;;;;60.95;38.92;;;14.40;99.90;;;;;;5074919;28;20066;-55
2022/11/01 08:45:05;;;;;;;51.97;36.75;;;14.50;99.90;;;;;;5079556;28;20031;-55
2022/11/01 08:47:31;;;;;;;57.47;36.00;;;14.80;99.90;;;;;;5080010;28;20124;-55
2022/11/01 08:49:57;;;;;;;52.17;37.75;;;14.60;99.90;;;;;;5077917;28;20119;-54
2022/11/01 08:52:24;;;;;;;49.55;36.75;;;14.80;99.90;;;;;;5073347;28;20039;-52
2022/11/01 08:54:50;;;;;;;50.50;36.20;;;14.90;99.90;;;;;;5073506;28;20465;-50
2022/11/01 08:57:16;;;;;;;51.05;36.70;;;15.00;99.90;;;;;;5072786;28;20115;-51
2022/11/01 08:59:42;;;;;;;53.78;37.17;;;;;;;;;;5074461;28;20069;-55
2022/11/01 09:02:11;;;;;;;52.65;35.75;;;15.20;99.90;;;;;;5068250;28;20400;-54
2022/11/01 09:04:36;;;;;;;55.03;39.22;;;15.20;99.90;;;;;;5083296;28;20063;-53
2022/11/01 09:07:02;;;;;;;54.75;39.40;;;15.00;99.90;;;;;;5072936;28;20125;-50
2022/11/01 09:09:28;;;;;;;58.20;39.13;;;15.10;99.90;;;;;;5070681;28;20033;-53
2022/11/01 09:11:55;;;;;;;54.42;39.58;;;15.30;99.90;;;;;;5070035;28;20174;-53
2022/11/01 09:14:23;;;;;;;53.80;40.15;;;15.40;99.90;;;;;;5073122;28;20028;-57
2022/11/01 09:16:52;;;;;;;53.53;39.15;;;15.30;99.90;;;;;;5069166;28;20129;-54
2022/11/01 09:19:18;;;;;;;55.13;38.30;;;15.30;99.90;;;;;;5072313;28;20037;-53
2022/11/01 09:21:45;;;;;;;50.13;37.58;;;15.50;99.90;;;;;;5063848;28;20040;-54
2022/11/01 09:24:13;;;;;;;51.63;37.13;;;15.90;99.90;;;;;;5076754;28;20036;-54
2022/11/01 09:26:40;;;;;;;48.55;36.97;;;;;;;;;;5073891;28;20024;-56
2022/11/01 09:29:06;;;;;;;48.78;37.35;;;16.50;99.90;;;;;;5050910;28;20086;-56
2022/11/01 09:31:32;;;;;;;51.13;37.42;;;16.40;99.90;;;;;;5069152;28;20036;-52
2022/11/01 09:33:59;;;;;;;51.90;36.35;;;16.50;99.90;;;;;;5089219;28;20033;-55
2022/11/01 09:36:26;;;;;;;46.33;35.80;;;16.50;99.90;;;;;;5071469;28;20119;-55
2022/11/01 09:38:53;;;;;;;50.25;37.72;;;;;;;;;;5049644;28;20043;-56
2022/11/01 09:41:41;;;;;;;50.17;38.80;;;16.70;99.90;;;;;;5070231;28;20110;-59
2022/11/01 09:44:13;;;;;;;54.67;39.40;;;;;;;;;;5066870;28;20040;-52
2022/11/01 09:46:55;;;;;;;55.47;40.40;;;17.40;99.90;;;;;;5065207;28;20031;-55
2022/11/01 09:49:44;;;;;;;60.88;43.75;;;17.40;99.90;;;;;;5070175;28;20036;-55
2022/11/01 09:52:19;;;;;;;66.40;44.92;;;17.60;99.90;;;;;;5067446;28;20107;-55
2022/11/01 09:54:45;;;;;;;54.75;41.55;;;17.90;99.90;;;;;;5067302;28;20094;-55
2022/11/01 09:57:30;;;;;;;64.97;46.03;;;17.60;99.90;;;;;;5067736;28;20037;-55
2022/11/01 10:00:03;;;;;;;56.25;41.25;;;;;;;;;;5069105;28;20398;-56
2022/11/01 10:02:49;;;;;;;54.47;42.05;;;18.70;99.90;;;;;;5068532;28;20040;-55
2022/11/01 10:05:15;;;;;;;57.88;43.03;;;;;;;;;;5062444;28;20051;-55
2022/11/01 10:07:46;;;;;;;58.90;43.67;;;21.10;99.90;;;;;;5065697;28;20047;-55
2022/11/01 10:10:22;;;;;;;56.47;41.95;;;;;;;;;;5067960;28;20037;-55
2022/11/01 10:13:22;;;;;;;51.65;41.22;;;22.90;99.90;;;;;;5071116;28;20169;-55
2022/11/01 10:16:11;;;;;;;55.78;43.90;;;24.20;99.90;;;;;;5069837;28;20025;-55
2022/11/01 10:18:50;;;;;;;58.65;42.63;;;24.20;99.90;;;;;;5067116;28;20029;-55
2022/11/01 10:21:18;;;;;;;53.20;42.38;;;24.50;99.90;;;;;;5053768;28;20507;-55
2022/11/01 10:23:47;;;;;;;51.75;41.40;;;;;;;;;;5066028;28;20047;-56
2022/11/01 10:26:15;;;;;;;57.97;44.28;;;;;;;;;;5069993;28;20042;-55
2022/11/01 10:29:02;;;;;;;55.78;44.90;;;;;;;;;;5072952;28;20025;-55
2022/11/01 10:31:28;;;;;;;52.60;43.20;;;25.30;99.90;;;;;;5070479;28;20035;-55
2022/11/01 10:34:17;;;;;;;55.33;44.45;;;25.10;99.90;;;;;;5068163;28;20036;-55
2022/11/01 10:36:45;;;;;;;60.08;44.13;;;;;;;;;;5068035;28;20032;-55
2022/11/01 10:39:29;;;;;;;52.75;42.03;;;25.60;99.90;;;;;;5073039;28;20434;-55
2022/11/01 10:41:55;;;;;;;55.08;41.88;;;;;;;;;;5063954;28;20075;-55
2022/11/01 10:44:37;;;;;;;53.95;43.58;;;;;;;;;;5070998;28;20016;-55
2022/11/01 10:47:05;;;;;;;62.45;44.60;;;;;;;;;;5072063;28;20379;-55
2022/11/01 10:49:36;;;;;;;55.53;45.85;;;26.40;99.90;;;;;;5071515;28;20106;-53
2022/11/01 10:52:06;;;;;;;60.60;45.25;;;27.00;99.90;;;;;;5071350;28;20028;-53
2022/11/01 10:54:36;;;;;;;57.97;45.78;;;27.20;99.30;;;;;;5071311;28;20378;-53
2022/11/01 10:57:08;;;;;;;60.95;48.08;;;27.40;99.90;;;;;;5068059;28;20040;-53
2022/11/01 10:59:43;;;;;;;66.70;47.67;;;27.50;98.00;;;;;;5082463;28;20394;-53
2022/11/01 11:02:53;;;;;;;64.38;48.35;;;26.90;97.30;;;;;;5067474;28;20086;-53
2022/11/01 11:05:21;;;;;;;71.22;56.05;;;26.60;97.80;;;;;;5028124;28;20075;-53
2022/11/01 11:07:47;;;;;;;71.28;56.15;;;26.40;98.00;;;;;;5007979;28;20488;-53
2022/11/01 11:10:21;;;;;;;74.95;54.92;;;26.90;97.50;;;;;;5025711;28;20096;-54
2022/11/01 11:12:51;;;;;;;65.75;52.72;;;27.10;97.80;;;;;;5028312;28;20057;-51
2022/11/01 11:15:21;;;;;;;68.05;51.63;;;;;;;;;;5029035;28;20595;-53
2022/11/01 11:17:55;;;;;;;70.13;53.03;;;27.70;99.90;;;;;;4988924;28;20092;-54
2022/11/01 11:20:24;;;;;;;64.90;51.90;;;27.80;96.60;;;;;;5031595;28;20032;-52
2022/11/01 11:22:50;;;;;;;69.10;52.22;;;27.80;95.90;;;;;;5031939;28;20045;-53
2022/11/01 11:25:20;;;;;;;62.63;49.03;;;27.40;95.90;;;;;;5032321;28;20032;-54
2022/11/01 11:27:51;;;;;;;60.40;45.50;;;26.90;95.60;;;;;;5032888;28;20040;-56
2022/11/01 11:30:31;;;;;;;;;;;26.50;95.80;;;;;;5033231;28;20144;-54
2022/11/01 11:32:58;;;;;;;55.83;43.65;;;26.60;96.30;;;;;;5031732;28;19959;-55
2022/11/01 11:35:27;;;;;;;63.95;46.72;;;27.20;96.40;;;;;;5042107;28;20055;-56
2022/11/01 11:38:00;;;;;;;64.68;47.72;;;27.40;96.10;;;;;;5073209;28;20083;-54
2022/11/01 11:40:42;;;;;;;64.85;48.33;;;27.60;96.00;;;;;;5073233;28;20850;-56
2022/11/01 11:43:24;;;;;;;60.80;45.60;;;27.80;96.10;;;;;;5071401;28;20060;-56
2022/11/01 11:46:03;;;;;;;61.10;44.65;;;27.70;95.90;;;;;;5074644;28;20064;-54
2022/11/01 11:48:29;;;;;;;59.42;45.85;;;26.90;95.50;;;;;;5074537;28;20025;-56
2022/11/01 11:51:00;;;;;;;58.22;44.00;;;;;;;;;;5071059;28;20086;-56
2022/11/01 11:53:28;;;;;;;52.30;39.70;;;27.20;99.90;;;;;;5075329;28;20044;-54
2022/11/01 11:55:57;;;;;;;43.47;36.15;;;27.10;99.90;;;;;;5075373;28;20028;-56
2022/11/01 11:58:48;;;;;;;38.65;31.40;;;27.00;99.90;;;;;;5073147;28;20460;-54
2022/11/01 12:01:22;;;;;;;45.22;33.95;;;26.40;95.10;;;;;;5075557;28;20029;-56
2022/11/01 12:03:49;;;;;;;43.63;34.10;;;26.60;95.70;;;;;;5074775;28;20035;-55
2022/11/01 12:06:21;;;;;;;48.15;36.70;;;26.80;95.60;;;;;;5070436;28;20031;-54
2022/11/01 12:08:48;;;;;;;48.00;37.15;;;26.80;95.60;;;;;;5070856;28;20029;-56
2022/11/01 12:11:15;;;;;;;51.20;37.60;;;26.30;95.90;;;;;;5085603;28;20089;-54
2022/11/01 12:13:58;;;;;;;39.40;29.92;;;26.50;95.80;;;;;;5073662;28;20060;-54
2022/11/01 12:16:24;;;;;;;37.05;30.23;;;26.40;95.30;;;;;;5072722;28;20364;-53
2022/11/01 12:18:57;;;;;;;40.75;29.77;;;26.70;95.90;;;;;;5070475;28;20485;-53
2022/11/01 12:21:33;;;;;;;36.67;29.98;;;26.60;96.20;;;;;;5070789;28;20025;-54
2022/11/01 12:24:19;;;;;;;38.20;28.70;;;;;;;;;;5068148;28;20484;-55
2022/11/01 12:26:45;;;;;;;38.78;27.65;;;;;;;;;;5073156;28;20358;-56
2022/11/01 12:29:21;;;;;;;34.63;27.45;;;;;;;;;;5071638;28;20165;-54
2022/11/01 12:31:48;;;;;;;31.95;26.38;;;;;;;;;;5071223;28;20035;-56
2022/11/01 12:34:29;;;;;;;33.90;25.65;;;;;;;;;;5073935;28;20039;-55
2022/11/01 12:37:04;;;;;;;43.47;27.77;;;26.50;99.90;;;;;;5072987;28;20033;-56
2022/11/01 12:39:57;;;;;;;32.65;25.65;;;26.20;95.70;;;;;;5075533;28;20304;-55
2022/11/01 12:42:28;;;;;;;31.05;26.25;;;;;;;;;;5071003;28;20052;-56
2022/11/01 12:44:57;;;;;;;34.00;25.02;;;;;;;;;;5072793;28;20119;-55
2022/11/01 12:47:37;;;;;;;34.05;25.73;;;26.10;97.70;;;;;;5075514;28;20033;-56
2022/11/01 12:50:15;;;;;;;28.73;23.52;;;26.20;96.60;;;;;;5073262;28;20036;-57
2022/11/01 12:52:43;;;;;;;26.58;22.05;;;26.00;96.20;;;;;;5070292;28;20037;-57
2022/11/01 12:55:16;;;;;;;30.98;23.85;;;26.10;96.40;;;;;;5068528;28;20075;-57
2022/11/01 12:57:42;;;;;;;28.80;23.60;;;26.30;96.10;;;;;;5072792;28;20029;-55
2022/11/01 13:00:14;;;;;;;32.55;23.30;;;26.20;96.10;;;;;;5072358;28;20028;-55
2022/11/01 13:03:03;;;;;;;29.70;22.92;;;26.00;96.30;;;;;;5068282;28;20044;-55
2022/11/01 13:05:51;;;;;;;32.45;24.15;;;26.00;96.50;;;;;;5027998;28;20034;-54
2022/11/01 13:08:20;;;;;;;27.85;22.90;;;26.30;96.40;;;;;;5015848;28;20049;-56
2022/11/01 13:10:47;;;;;;;30.45;23.23;;;26.20;96.50;;;;;;5026835;28;20077;-56
2022/11/01 13:13:42;;;;;;;99.35;65.38;;;25.90;96.80;;;;;;5019805;28;20084;-54
2022/11/01 13:16:12;;;;;;;37.67;29.63;;;26.10;96.90;;;;;;4969162;28;20066;-57
2022/11/01 13:18:52;;;;;;;32.92;22.85;;;26.40;96.80;;;;;;4972032;28;20035;-58
2022/11/01 13:21:27;;;;;;;31.73;22.65;;;26.40;96.50;;;;;;4972503;28;20148;-53
2022/11/01 13:23:57;;;;;;;29.27;23.38;;;26.40;96.30;;;;;;4972785;28;20146;-57
2022/11/01 13:26:29;;;;;;;26.00;21.65;;;26.40;96.40;;;;;;4972834;28;20125;-54
2022/11/01 13:29:13;;;;;;;;;;;26.10;96.50;;;;;;4973755;28;20054;-54
2022/11/01 13:32:04;;;;;;;29.77;21.33;;;26.20;96.70;;;;;;4972652;28;19917;-58
2022/11/01 13:34:51;;;;;;;27.88;21.52;;;26.00;96.60;;;;;;4956513;28;20618;-57
2022/11/01 13:37:46;;;;;;;41.88;27.65;;;25.90;96.70;;;;;;4951868;28;20035;-56
2022/11/01 13:40:17;;;;;;;41.58;28.45;;;25.80;97.00;;;;;;4951694;28;20426;-56
2022/11/01 13:43:06;;;;;;;32.38;22.65;;;25.60;97.10;;;;;;4985118;28;20559;-56
2022/11/01 13:46:08;;;;;;;27.55;21.38;;;25.80;97.00;;;;;;5003775;28;20070;-52
2022/11/01 13:48:58;;;;;;;27.42;21.40;;;25.60;97.20;;;;;;5008715;28;20041;-57
2022/11/01 13:51:36;;;;;;;32.85;23.55;;;25.60;97.40;;;;;;5012531;28;20037;-56
2022/11/01 13:54:25;;;;;;;30.95;23.15;;;25.80;97.70;;;;;;5073015;28;20123;-56
2022/11/01 13:56:56;;;;;;;37.35;29.60;;;;;;;;;;5031426;28;20039;-58
2022/11/01 13:59:31;;;;;;;;;;;25.20;99.90;;;;;;5031199;28;20072;-57
2022/11/01 14:02:17;;;;;;;28.15;22.17;;;;;;;;;;5030792;28;19909;-57
2022/11/01 14:04:54;;;;;;;27.50;21.52;;;;;;;;;;5030726;28;20516;-58
2022/11/01 14:07:22;;;;;;;26.52;20.83;;;;;;;;;;5025420;28;20033;-55
2022/11/01 14:09:53;;;;;;;27.48;20.48;;;25.00;99.90;;;;;;5029864;28;20047;-56
2022/11/01 14:12:30;;;;;;;26.67;19.63;;;24.80;99.00;;;;;;5030589;28;20087;-57
2022/11/01 14:15:12;;;;;;;24.05;19.48;;;24.90;99.20;;;;;;5030419;28;20030;-55
2022/11/01 14:18:06;;;;;;;27.25;20.55;;;24.90;99.30;;;;;;5030495;28;20441;-53
2022/11/01 14:20:39;;;;;;;36.88;26.50;;;24.90;99.40;;;;;;5022139;28;20540;-57
2022/11/01 14:23:29;;;;;;;34.33;23.40;;;24.80;99.50;;;;;;5029918;28;20116;-57
2022/11/01 14:26:20;;;;;;;29.75;22.13;;;24.90;99.30;;;;;;5029117;28;20033;-54
2022/11/01 14:28:49;;;;;;;28.40;19.85;;;24.70;99.40;;;;;;5029635;28;20061;-57
2022/11/01 14:31:17;;;;;;;28.10;20.85;;;;;;;;;;5028911;28;20030;-55
2022/11/01 14:33:47;;;;;;;27.65;21.65;;;24.50;99.30;;;;;;5047912;28;20051;-55
2022/11/01 14:36:19;;;;;;;31.70;20.67;;;24.40;99.90;;;;;;5066588;28;20028;-53
2022/11/01 14:39:05;;;;;;;31.48;20.67;;;24.40;99.90;;;;;;5070208;28;21304;-55
2022/11/01 14:41:33;;;;;;;29.98;22.05;;;;;;;;;;5070989;28;20186;-53
2022/11/01 14:44:10;;;;;;;27.88;19.90;;;24.10;99.90;;;;;;5065141;28;20028;-57
2022/11/01 14:46:38;;;;;;;40.75;22.50;;;;;;;;;;5066303;28;20077;-57
2022/11/01 14:49:17;;;;;;;32.13;24.08;;;23.60;99.90;;;;;;5070436;28;21169;-52
2022/11/01 14:51:56;;;;;;;30.13;22.30;;;;;;;;;;5069145;28;20059;-55
2022/11/01 14:54:42;;;;;;;29.48;20.63;;;23.10;99.90;;;;;;5069629;28;20037;-60
2022/11/01 14:57:26;;;;;;;31.17;20.15;;;23.00;99.90;;;;;;5067929;28;20032;-55
2022/11/01 14:59:54;;;;;;;28.13;20.02;;;22.80;99.90;;;;;;5067139;28;20127;-57
2022/11/01 15:02:21;;;;;;;27.70;20.63;;;;;;;;;;5069258;28;20028;-55
2022/11/01 15:04:49;;;;;;;26.73;21.38;;;22.70;99.90;;;;;;5085963;28;20434;-54
2022/11/01 15:07:24;;;;;;;31.15;21.25;;;22.60;99.90;;;;;;5070064;28;20059;-56
2022/11/01 15:10:02;;;;;;;33.95;23.60;;;22.40;99.90;;;;;;5080649;28;20094;-60
2022/11/01 15:12:32;;;;;;;30.02;22.80;;;22.20;99.90;;;;;;5075117;28;20029;-56
2022/11/01 15:14:59;;;;;;;38.72;23.35;;;22.00;99.90;;;;;;5062809;28;20532;-59
2022/11/01 15:17:29;;;;;;;32.78;22.83;;;21.70;99.90;;;;;;5063142;28;20476;-56
2022/11/01 15:19:56;;;;;;;34.90;24.10;;;;;;;;;;5065916;28;20033;-55
2022/11/01 15:22:24;;;;;;;30.42;22.25;;;;;;;;;;5069670;28;20062;-55
2022/11/01 15:24:57;;;;;;;33.97;23.13;;;21.00;99.90;;;;;;5071116;28;20349;-58
2022/11/01 15:27:30;;;;;;;43.72;25.77;;;20.80;99.90;;;;;;5013409;28;20036;-56
2022/11/01 15:29:56;;;;;;;40.60;29.10;;;20.80;99.90;;;;;;5064646;28;20462;-56
2022/11/01 15:32:29;;;;;;;45.25;30.48;;;20.60;99.90;;;;;;5068982;28;20032;-55
2022/11/01 15:34:58;;;;;;;52.80;34.00;;;20.50;99.90;;;;;;5067809;28;20036;-54
2022/11/01 15:37:31;;;;;;;53.60;33.75;;;20.40;99.90;;;;;;5070807;28;20056;-54
2022/11/01 15:40:14;;;;;;;110.80;55.13;;;20.20;99.90;;;;;;5074560;28;20064;-54
2022/11/01 15:42:45;;;;;;;155.18;78.68;;;20.00;99.90;;;;;;5075697;28;20040;-55
2022/11/01 15:45:29;;;;;;;66.90;40.03;;;19.90;99.90;;;;;;5076951;28;20028;-59
2022/11/01 15:47:59;;;;;;;70.70;45.00;;;19.80;99.90;;;;;;5070523;28;20040;-56